Time;durP1;ratioP1;P1;durP2;ratioP2;P2;SDS_P1;SDS_P2;PMS_P1;PMS_P2;Temp;Humidity;BMP_temperature;BMP_pressure;BME280_temperature;BME280_humidity;BME280_pressure;Samples;Min_cycle;Max_cycle;Signal;HPM_P1;HPM_P2
2022/07/12 00:01:49;;;;;;;6.32;6.03;;;;;;;14.28;100.00;102098.88;6027914;23;20043;-70
2022/07/12 00:04:16;;;;;;;5.00;4.80;;;;;;;14.38;100.00;102128.38;6030015;23;20018;-69
2022/07/12 00:06:42;;;;;;;5.03;4.82;;;;;;;14.22;100.00;102086.78;6021057;23;20059;-70
2022/07/12 00:09:09;;;;;;;5.15;4.95;;;;;;;14.01;100.00;102086.00;6019712;23;20031;-69
2022/07/12 00:11:36;;;;;;;5.18;4.97;;;;;;;13.97;100.00;102094.94;6001094;23;20007;-69
2022/07/12 00:14:04;;;;;;;5.47;5.28;;;;;;;14.10;100.00;102100.56;6015164;23;20018;-69
2022/07/12 00:16:31;;;;;;;4.90;4.70;;;;;;;14.05;100.00;102160.59;5995501;23;20015;-69
2022/07/12 00:18:58;;;;;;;6.53;6.22;;;;;;;13.86;100.00;102107.78;6020409;23;20022;-69
2022/07/12 00:21:24;;;;;;;4.90;4.70;;;;;;;14.00;100.00;102139.69;6029644;23;20046;-69
2022/07/12 00:23:51;;;;;;;6.85;6.55;;;;;;;13.81;100.00;102068.41;6016117;23;20187;-71
2022/07/12 00:26:17;;;;;;;5.20;4.90;;;;;;;13.92;100.00;102139.16;6026759;23;20019;-69
2022/07/12 00:28:44;;;;;;;5.35;5.05;;;;;;;13.60;100.00;102104.47;6015904;23;20445;-69
2022/07/12 00:31:11;;;;;;;4.88;4.68;;;;;;;13.83;100.00;102148.34;6025411;23;20086;-69
2022/07/12 00:33:37;;;;;;;4.85;4.65;;;;;;;13.84;100.00;102088.50;6015361;23;20011;-68
2022/07/12 00:36:04;;;;;;;5.60;5.40;;;;;;;13.85;100.00;102135.06;6019826;23;20113;-71
2022/07/12 00:38:31;;;;;;;5.13;4.93;;;;;;;13.57;100.00;102109.88;6025526;23;20015;-71
2022/07/12 00:40:57;;;;;;;6.30;6.00;;;;;;;13.76;100.00;102133.69;6020073;23;20057;-68
2022/07/12 00:43:24;;;;;;;5.10;4.90;;;;;;;13.82;100.00;102112.31;6014380;23;20090;-69
2022/07/12 00:45:50;;;;;;;6.35;6.05;;;;;;;13.85;100.00;102138.59;6020063;23;20433;-69
2022/07/12 00:48:17;;;;;;;4.60;4.40;;;;;;;13.66;100.00;102082.25;6015262;23;20501;-71
2022/07/12 00:50:46;;;;;;;4.95;4.75;;;;;;;13.80;100.00;102115.94;6024951;23;20122;-69
2022/07/12 00:53:13;;;;;;;5.10;4.90;;;;;;;13.79;100.00;102087.84;6020323;23;20509;-68
2022/07/12 00:55:40;;;;;;;4.88;4.68;;;;;;;13.79;100.00;102116.88;6024663;23;20712;-69
2022/07/12 00:58:07;;;;;;;4.97;4.78;;;;;;;13.64;100.00;102142.97;6010496;23;20051;-69
2022/07/12 01:00:33;;;;;;;4.93;4.72;;;;;;;13.75;100.00;102122.28;6035041;23;20015;-68
2022/07/12 01:03:02;;;;;;;6.57;6.28;;;;;;;13.76;100.00;102108.16;6014823;23;20159;-68
2022/07/12 01:05:30;;;;;;;4.78;4.57;;;;;;;13.61;100.00;102106.19;6020839;23;20381;-69
2022/07/12 01:07:56;;;;;;;6.65;6.35;;;;;;;13.73;100.00;102134.69;6020872;23;20027;-69
2022/07/12 01:10:23;;;;;;;4.80;4.60;;;;;;;13.70;100.00;102126.03;6000297;23;20019;-70
2022/07/12 01:12:50;;;;;;;6.20;5.90;;;;;;;13.67;100.00;102099.78;6014859;23;20457;-70
2022/07/12 01:15:20;;;;;;;5.05;4.85;;;;;;;13.63;100.00;102106.97;6003980;23;20342;-71
2022/07/12 01:17:46;;;;;;;5.43;5.20;;;;;;;13.61;100.00;102177.41;6020403;23;20015;-71
2022/07/12 01:20:19;;;;;;;4.70;4.50;;;;;;;13.56;100.00;102143.28;6023464;23;20077;-68
2022/07/12 01:22:52;;;;;;;5.35;5.13;;;;;;;13.51;100.00;102121.53;6020216;23;20031;-71
2022/07/12 01:25:20;;;;;;;5.13;4.90;;;;;;;13.46;100.00;102141.97;6023480;23;20010;-70
2022/07/12 01:27:46;;;;;;;5.78;5.53;;;;;;;13.28;100.00;102077.63;6008121;23;20026;-70
2022/07/12 01:30:13;;;;;;;4.60;4.40;;;;;;;13.42;100.00;102121.91;6025026;23;20026;-69
2022/07/12 01:32:39;;;;;;;4.80;4.60;;;;;;;13.38;100.00;102104.50;6027001;23;20522;-71
2022/07/12 01:35:07;;;;;;;5.20;5.00;;;;;;;13.31;100.00;102132.91;5996009;23;20022;-71
2022/07/12 01:37:35;;;;;;;4.65;4.45;;;;;;;13.23;100.00;102124.44;6015965;23;20182;-70
2022/07/12 01:40:04;;;;;;;6.07;5.78;;;;;;;13.12;100.00;102148.56;6039333;23;20518;-70
2022/07/12 01:42:31;;;;;;;4.80;4.60;;;;;;;13.05;100.00;102197.19;6019733;23;20040;-70
2022/07/12 01:44:58;;;;;;;4.88;4.68;;;;;;;12.97;100.00;102167.63;6030128;23;20099;-70
2022/07/12 01:47:26;;;;;;;5.05;4.85;;;;;;;13.01;100.00;102155.16;6021223;23;20081;-70
2022/07/12 01:49:52;;;;;;;6.43;6.13;;;;;;;13.02;100.00;102127.91;6033788;23;20383;-70
2022/07/12 01:52:20;;;;;;;4.80;4.60;;;;;;;13.02;100.00;102151.63;6028031;23;20074;-70
2022/07/12 01:54:47;;;;;;;5.85;5.60;;;;;;;12.90;100.00;102140.63;6001018;23;20035;-70
2022/07/12 01:57:15;;;;;;;4.80;4.60;;;;;;;12.98;100.00;102150.88;6018626;23;20508;-71
2022/07/12 01:59:42;;;;;;;4.97;4.78;;;;;;;12.72;100.00;102110.59;6001868;23;20292;-70
2022/07/12 02:02:08;;;;;;;4.90;4.70;;;;;;;12.74;100.00;102132.47;6025815;23;20026;-70
2022/07/12 02:04:35;;;;;;;5.55;5.25;;;;;;;12.72;100.00;102126.41;5997705;23;20099;-70
2022/07/12 02:07:03;;;;;;;5.80;5.50;;;;;;;12.78;100.00;102134.06;6026802;23;20234;-70
2022/07/12 02:09:32;;;;;;;4.80;4.60;;;;;;;12.63;100.00;102150.47;6024630;23;20426;-70
2022/07/12 02:11:59;;;;;;;6.57;6.28;;;;;;;12.53;100.00;102147.31;6021370;23;20023;-70
2022/07/12 02:14:26;;;;;;;4.80;4.60;;;;;;;12.65;100.00;102156.53;6030025;23;20025;-69
2022/07/12 02:16:53;;;;;;;4.63;4.43;;;;;;;12.50;100.00;102183.44;6031858;23;20031;-70
2022/07/12 02:19:19;;;;;;;4.63;4.43;;;;;;;12.19;100.00;102129.28;6026986;23;20137;-70
2022/07/12 02:21:46;;;;;;;5.55;5.32;;;;;;;12.48;100.00;102240.56;6016547;23;20227;-71
2022/07/12 02:24:12;;;;;;;4.90;4.70;;;;;;;12.42;100.00;102196.88;6032716;23;20413;-70
2022/07/12 02:26:39;;;;;;;6.10;5.80;;;;;;;12.12;100.00;102154.06;6024885;23;20022;-68
2022/07/12 02:29:06;;;;;;;6.18;5.88;;;;;;;12.29;100.00;102221.94;5993118;23;20095;-69
2022/07/12 02:31:32;;;;;;;4.50;4.30;;;;;;;12.16;100.00;102260.97;6021664;23;20030;-69
2022/07/12 02:33:59;;;;;;;6.15;5.85;;;;;;;12.33;100.00;102219.13;6025646;23;20420;-68
2022/07/12 02:36:26;;;;;;;5.00;4.80;;;;;;;12.37;100.00;102254.97;6016997;23;20046;-69
2022/07/12 02:38:52;;;;;;;5.80;5.50;;;;;;;12.40;100.00;102255.78;6027407;23;20716;-68
2022/07/12 02:41:18;;;;;;;5.00;4.80;;;;;;;12.41;100.00;102282.06;6020578;23;20019;-69
2022/07/12 02:43:45;;;;;;;4.80;4.60;;;;;;;12.42;100.00;102253.94;6030838;23;20041;-68
2022/07/12 02:46:13;;;;;;;4.70;4.50;;;;;;;12.35;100.00;102238.38;6036780;23;20385;-67
2022/07/12 02:48:41;;;;;;;4.85;4.65;;;;;;;12.40;100.00;102284.72;6034846;23;20469;-68
2022/07/12 02:51:09;;;;;;;5.05;4.85;;;;;;;12.38;100.00;102261.94;6022050;23;20058;-69
2022/07/12 02:53:36;;;;;;;4.65;4.45;;;;;;;12.38;100.00;102255.81;6022565;23;20345;-68
2022/07/12 02:56:08;;;;;;;5.20;5.00;;;;;;;12.21;100.00;102256.41;5992076;23;20055;-69
2022/07/12 02:58:35;;;;;;;4.60;4.40;;;;;;;12.20;100.00;102222.25;6031780;23;20483;-69
2022/07/12 03:01:02;;;;;;;4.70;4.50;;;;;;;12.33;100.00;102279.69;6032660;23;20023;-68
2022/07/12 03:03:29;;;;;;;4.90;4.70;;;;;;;12.30;100.00;102286.81;6023263;23;20027;-69
2022/07/12 03:05:57;;;;;;;6.45;6.15;;;;;;;12.31;100.00;102280.66;6021129;23;20065;-69
2022/07/12 03:08:23;;;;;;;4.65;4.45;;;;;;;12.22;100.00;102259.91;6027649;23;20480;-69
2022/07/12 03:10:50;;;;;;;4.90;4.70;;;;;;;12.14;100.00;102241.72;6037035;23;20035;-70
2022/07/12 03:13:16;;;;;;;4.60;4.40;;;;;;;12.16;100.00;102247.78;6057642;23;20511;-69
2022/07/12 03:15:45;;;;;;;4.75;4.55;;;;;;;12.34;100.00;102272.63;6042518;23;20221;-70
2022/07/12 03:18:13;;;;;;;4.53;4.32;;;;;;;12.34;100.00;102248.94;6031979;23;20018;-69
2022/07/12 03:20:40;;;;;;;4.82;4.63;;;;;;;12.36;100.00;102274.28;6028397;23;20449;-68
2022/07/12 03:23:06;;;;;;;4.97;4.78;;;;;;;12.36;100.00;102300.63;6028201;23;20050;-69
2022/07/12 03:25:33;;;;;;;4.60;4.40;;;;;;;12.36;100.00;102300.63;6022266;23;20074;-68
2022/07/12 03:27:59;;;;;;;6.82;6.53;;;;;;;12.20;100.00;102280.16;5991929;23;20296;-68
2022/07/12 03:30:27;;;;;;;4.60;4.40;;;;;;;12.31;100.00;102292.03;6022647;23;20094;-69
2022/07/12 03:32:53;;;;;;;4.78;4.57;;;;;;;12.40;100.00;102303.16;6000955;23;20060;-70
2022/07/12 03:35:20;;;;;;;4.85;4.65;;;;;;;12.36;100.00;102308.53;6032759;23;20023;-69
2022/07/12 03:37:51;;;;;;;5.70;5.45;;;;;;;12.43;100.00;102311.81;6032990;23;20282;-70
2022/07/12 03:40:20;;;;;;;4.90;4.70;;;;;;;12.44;100.00;102310.03;6042275;23;20031;-70
2022/07/12 03:42:47;;;;;;;5.00;4.80;;;;;;;12.43;100.00;102285.50;6002178;23;20355;-71
2022/07/12 03:45:15;;;;;;;4.57;4.38;;;;;;;12.44;100.00;102302.16;6023273;23;20015;-70
2022/07/12 03:47:41;;;;;;;4.60;4.40;;;;;;;11.58;100.00;102132.22;6023827;23;20082;-71
2022/07/12 03:50:12;;;;;;;4.90;4.70;;;;;;;12.50;100.00;102312.47;6011624;23;20361;-71
2022/07/12 03:52:41;;;;;;;4.80;4.60;;;;;;;12.54;100.00;102328.09;6037366;23;20049;-71
2022/07/12 03:55:09;;;;;;;5.10;4.90;;;;;;;12.57;100.00;102306.94;6014067;23;20033;-71
2022/07/12 03:57:36;;;;;;;4.68;4.47;;;;;;;12.34;100.00;102220.84;5999135;23;20015;-71
2022/07/12 04:00:10;;;;;;;5.72;5.50;;;;;;;12.68;100.00;102298.66;6031356;23;20023;-70
2022/07/12 04:02:37;;;;;;;4.68;4.47;;;;;;;12.77;100.00;102306.25;6043275;23;20011;-71
2022/07/12 04:05:05;;;;;;;4.80;4.60;;;;;;;12.88;100.00;102310.25;6039378;23;20105;-71
2022/07/12 04:07:32;;;;;;;4.60;4.40;;;;;;;12.96;100.00;102313.47;6047726;23;20039;-71
2022/07/12 04:09:59;;;;;;;6.47;6.18;;;;;;;13.01;100.00;102308.91;6019230;23;20370;-71
2022/07/12 04:12:25;;;;;;;5.00;4.80;;;;;;;12.97;100.00;102347.69;6025655;23;20048;-71
2022/07/12 04:14:51;;;;;;;6.43;6.13;;;;;;;13.33;100.00;102333.22;6018367;23;20031;-71
2022/07/12 04:17:19;;;;;;;4.57;4.38;;;;;;;14.05;100.00;102334.84;6027188;23;20402;-71
2022/07/12 04:19:45;;;;;;;5.55;5.30;;;;;;;14.56;100.00;102294.00;6022876;23;20027;-70
2022/07/12 04:22:11;;;;;;;4.90;4.70;;;;;;;15.58;100.00;102364.34;6022012;23;20206;-70
2022/07/12 04:24:38;;;;;;;5.00;4.80;;;;;;;15.71;100.00;102367.25;6015752;23;20218;-71
2022/07/12 04:27:04;;;;;;;5.85;5.55;;;;;;;15.92;100.00;102391.91;5974025;23;20044;-71
2022/07/12 04:29:31;;;;;;;18.17;17.27;;;;;;;15.77;100.00;102348.47;5889845;23;20336;-72
2022/07/12 04:31:57;;;;;;;6.65;6.28;;;;;;;16.21;100.00;102398.44;5960952;23;20094;-71
2022/07/12 04:34:24;;;;;;;5.30;5.00;;;;;;;16.66;100.00;102394.44;6023656;23;20437;-72
2022/07/12 04:36:50;;;;;;;5.60;5.30;;;;;;;17.19;97.09;102391.75;5999033;23;20042;-70
2022/07/12 04:39:17;;;;;;;5.80;5.50;;;;;;;17.84;92.06;102383.81;6027115;23;20027;-73
2022/07/12 04:41:43;;;;;;;5.50;5.20;;;;;;;18.43;85.60;102389.31;6027380;23;20360;-71
2022/07/12 04:44:10;;;;;;;5.25;5.05;;;;;;;19.04;81.91;102383.03;6020500;23;20116;-72
2022/07/12 04:46:36;;;;;;;5.65;5.35;;;;;;;19.70;78.12;102386.00;6023945;23;20499;-71
2022/07/12 04:49:03;;;;;;;6.38;6.07;;;;;;;20.03;76.91;102372.34;6022955;23;20502;-71
2022/07/12 04:51:30;;;;;;;6.22;5.88;;;;;;;20.19;74.23;102352.69;6027017;23;20059;-72
2022/07/12 04:53:56;;;;;;;7.72;7.30;;;;;;;20.56;73.31;102351.03;6011039;23;20555;-71
2022/07/12 04:56:23;;;;;;;5.70;5.40;;;;;;;20.81;72.78;102376.09;6031216;23;20254;-71
2022/07/12 04:58:49;;;;;;;7.32;6.90;;;;;;;20.96;70.45;102326.13;6021761;23;20282;-71
2022/07/12 05:01:20;;;;;;;6.78;6.20;;;;;;;21.21;68.31;102336.78;6025650;23;20456;-72
2022/07/12 05:03:47;;;;;;;7.60;7.20;;;;;;;21.11;68.54;102360.59;6015953;23;20086;-71
2022/07/12 05:06:13;;;;;;;6.47;6.07;;;;;;;21.14;70.14;102383.56;6035565;23;20409;-71
2022/07/12 05:08:40;;;;;;;6.30;6.00;;;;;;;20.46;71.84;102382.81;6020525;23;20011;-72
2022/07/12 05:11:06;;;;;;;6.25;5.95;;;;;;;20.11;73.27;102330.06;6023331;23;20179;-72
2022/07/12 05:13:33;;;;;;;6.82;6.22;;;;;;;20.35;72.06;102424.50;6024496;23;20074;-71
2022/07/12 05:15:59;;;;;;;8.15;7.65;;;;;;;20.46;73.89;102414.81;6029896;23;20030;-72
2022/07/12 05:18:26;;;;;;;6.55;6.18;;;;;;;20.88;72.37;102441.41;6024522;23;20054;-72
2022/07/12 05:20:52;;;;;;;8.25;7.72;;;;;;;20.58;72.75;102396.28;6028495;23;20086;-72
2022/07/12 05:23:19;;;;;;;5.97;5.68;;;;;;;21.31;71.05;102414.44;6039238;23;20030;-72
2022/07/12 05:25:46;;;;;;;7.15;6.78;;;;;;;22.23;68.20;102444.34;5999498;23;20031;-71
2022/07/12 05:28:16;;;;;;;6.95;6.50;;;;;;;21.62;66.91;102398.91;6003985;23;20062;-71
2022/07/12 05:30:43;;;;;;;7.07;6.68;;;;;;;21.17;66.89;102265.88;6024648;23;20034;-72
2022/07/12 05:33:12;;;;;;;7.50;6.93;;;;;;;22.09;65.28;102382.06;6024842;23;20356;-72
2022/07/12 05:35:38;;;;;;;6.88;6.47;;;;;;;21.83;67.76;102381.31;6004579;23;20353;-71
2022/07/12 05:38:05;;;;;;;6.88;6.47;;;;;;;22.32;65.25;102406.25;6023033;23;20073;-71
2022/07/12 05:40:31;;;;;;;6.85;6.45;;;;;;;22.56;63.05;102370.59;6020710;23;20628;-72
2022/07/12 05:42:58;;;;;;;8.13;7.53;;;;;;;21.80;67.26;102364.66;6004191;23;20085;-71
2022/07/12 05:45:25;;;;;;;6.70;6.35;;;;;;;22.00;67.54;102398.78;6026998;23;20986;-72
2022/07/12 05:47:52;;;;;;;7.15;6.60;;;;;;;21.70;67.90;102367.13;6023279;23;20505;-72
2022/07/12 05:50:18;;;;;;;6.32;6.00;;;;;;;21.91;67.86;102386.09;5997371;23;20014;-72
2022/07/12 05:55:30;;;;;;;6.78;6.28;;;;;;;21.55;68.56;102365.56;6021140;23;20053;-72
2022/07/12 05:57:56;;;;;;;8.55;8.05;;;;;;;21.87;68.43;102398.84;5987762;23;20019;-72
2022/07/12 06:00:23;;;;;;;7.80;6.88;;;;;;;21.88;69.50;102387.16;6024156;23;20085;-72
2022/07/12 06:02:49;;;;;;;7.35;6.95;;;;;;;21.81;68.17;102369.88;5998368;23;20115;-72
2022/07/12 06:05:16;;;;;;;7.55;6.65;;;;;;;22.29;68.15;102395.78;6030299;23;20011;-71
2022/07/12 06:07:43;;;;;;;7.03;6.63;;;;;;;22.83;65.72;102410.41;6024998;23;20047;-73
2022/07/12 06:10:09;;;;;;;6.78;6.40;;;;;;;23.79;63.96;102450.22;6026565;23;20074;-71
2022/07/12 06:12:37;;;;;;;7.55;7.00;;;;;;;24.15;61.14;102442.81;6025851;23;20471;-72
2022/07/12 06:15:06;;;;;;;7.68;7.18;;;;;;;24.08;60.90;102404.09;6023790;23;20484;-72
2022/07/12 06:17:33;;;;;;;6.78;6.38;;;;;;;24.67;58.57;102492.19;6029892;23;20102;-72
2022/07/12 06:20:00;;;;;;;8.23;7.72;;;;;;;24.56;59.21;102469.94;5994730;23;20542;-71
2022/07/12 06:22:26;;;;;;;7.45;7.00;;;;;;;24.54;59.28;102451.28;6024385;23;20026;-71
2022/07/12 06:24:52;;;;;;;7.88;7.43;;;;;;;24.42;58.70;102530.94;6018582;23;20033;-72
2022/07/12 06:27:19;;;;;;;7.35;6.80;;;;;;;24.05;61.25;102508.94;6018704;23;20124;-72
2022/07/12 06:29:47;;;;;;;7.13;6.75;;;;;;;23.13;64.75;102478.69;6000160;23;20027;-72
2022/07/12 06:32:15;;;;;;;6.95;6.47;;;;;;;22.61;66.58;102408.53;6026048;23;20458;-73
2022/07/12 06:34:42;;;;;;;6.72;6.22;;;;;;;22.92;66.04;102449.03;6028507;23;20133;-73
2022/07/12 06:37:10;;;;;;;6.93;6.50;;;;;;;22.73;66.63;102642.28;6026073;23;20535;-72
2022/07/12 06:39:36;;;;;;;7.05;6.57;;;;;;;22.46;67.07;102558.56;6026417;23;20070;-72
2022/07/12 06:42:03;;;;;;;7.72;7.18;;;;;;;22.37;67.31;102561.94;6028102;23;20030;-72
2022/07/12 06:44:31;;;;;;;6.13;5.82;;;;;;;22.32;68.49;102525.78;5995859;23;20601;-72
2022/07/12 06:46:58;;;;;;;7.40;6.82;;;;;;;22.09;70.01;102472.97;6011663;23;20019;-71
2022/07/12 06:49:25;;;;;;;6.95;6.55;;;;;;;22.36;69.17;102473.75;6026057;23;20007;-71
2022/07/12 06:51:52;;;;;;;7.65;7.25;;;;;;;22.42;69.42;102495.56;6015744;23;20014;-74
2022/07/12 06:54:19;;;;;;;6.65;6.25;;;;;;;22.48;68.96;102441.59;6004183;23;20038;-71
2022/07/12 06:56:45;;;;;;;7.63;7.13;;;;;;;22.52;68.13;102433.34;6013065;23;20086;-71
2022/07/12 06:59:11;;;;;;;6.20;5.90;;;;;;;22.58;68.72;102459.63;6037619;23;20050;-74
2022/07/12 07:01:41;;;;;;;6.45;6.15;;;;;;;22.38;70.29;102440.56;6022944;23;20031;-73
2022/07/12 07:04:07;;;;;;;6.63;6.22;;;;;;;21.54;68.84;102283.72;5995508;23;20026;-73
2022/07/12 07:06:34;;;;;;;7.05;6.55;;;;;;;22.70;68.52;102459.53;6026908;23;20027;-73
2022/07/12 07:09:00;;;;;;;7.75;7.25;;;;;;;22.76;68.06;102428.78;5999350;23;20473;-73
2022/07/12 07:11:27;;;;;;;10.65;6.75;;;;;;;22.98;67.16;102443.22;6029606;23;20030;-74
2022/07/12 07:13:55;;;;;;;7.95;7.45;;;;;;;23.06;66.54;102452.38;6024477;23;20045;-73
2022/07/12 07:16:23;;;;;;;6.05;5.75;;;;;;;23.08;67.22;102450.44;6020250;23;20021;-72
2022/07/12 07:18:50;;;;;;;8.07;7.50;;;;;;;23.15;66.88;102449.94;6000722;23;20027;-72
2022/07/12 07:21:16;;;;;;;6.65;6.25;;;;;;;22.75;66.28;102383.41;6020966;23;20038;-71
2022/07/12 07:23:43;;;;;;;6.80;6.40;;;;;;;23.15;66.62;102444.59;6011944;23;20031;-72
2022/07/12 07:26:09;;;;;;;6.55;6.05;;;;;;;23.06;66.67;102446.16;6041538;23;20006;-71
2022/07/12 07:30:51;;;;;;;6.28;5.97;;;;;;;22.93;66.71;102437.34;6037101;23;20057;-74
2022/07/12 07:31:22;;;;;;;6.20;5.90;;;;;;;22.41;67.41;102364.56;6028199;23;20362;-72
2022/07/12 07:33:49;;;;;;;7.78;7.28;;;;;;;22.62;67.96;102411.09;6020575;23;20029;-72
2022/07/12 07:36:15;;;;;;;6.47;6.07;;;;;;;22.54;68.05;102402.81;5994726;23;20583;-72
2022/07/12 07:38:42;;;;;;;6.32;6.03;;;;;;;22.39;68.49;102372.72;6028100;23;20031;-71
2022/07/12 07:41:08;;;;;;;6.00;5.70;;;;;;;21.14;66.99;102142.44;6023897;23;20045;-72
2022/07/12 07:43:35;;;;;;;6.00;5.70;;;;;;;23.15;66.02;102441.91;6004161;23;20252;-72
2022/07/12 07:46:01;;;;;;;7.55;7.13;;;;;;;22.19;64.55;102285.97;6024549;23;20111;-72
2022/07/12 07:48:29;;;;;;;6.47;6.07;;;;;;;23.20;64.33;102439.75;6022564;23;20540;-72
2022/07/12 07:50:55;;;;;;;7.80;7.35;;;;;;;23.17;64.46;102448.00;6026018;23;20203;-72
2022/07/12 07:53:23;;;;;;;6.10;5.70;;;;;;;23.15;65.44;102444.59;6016075;23;20016;-71
2022/07/12 07:55:49;;;;;;;7.18;6.78;;;;;;;22.93;64.94;102419.44;6028947;23;20180;-72
2022/07/12 07:58:16;;;;;;;6.38;6.05;;;;;;;23.20;65.40;102451.31;6025164;23;20017;-72
2022/07/12 08:00:42;;;;;;;6.30;5.90;;;;;;;22.85;66.52;102422.75;6025652;23;20038;-72
2022/07/12 08:03:09;;;;;;;5.95;5.60;;;;;;;22.98;65.96;102406.56;6046970;23;20285;-71
2022/07/12 08:05:35;;;;;;;6.53;6.13;;;;;;;23.31;64.74;102453.13;6026160;23;20085;-72
2022/07/12 08:08:02;;;;;;;6.72;6.32;;;;;;;23.55;64.33;102457.53;5992596;23;20365;-73
2022/07/12 08:10:28;;;;;;;5.68;5.38;;;;;;;23.67;63.54;102449.38;6027061;23;20324;-71
2022/07/12 08:12:55;;;;;;;7.38;7.00;;;;;;;23.57;63.78;102552.06;6026188;23;20408;-72
2022/07/12 08:15:22;;;;;;;6.43;6.03;;;;;;;23.73;63.19;102533.78;6020735;23;20437;-71
2022/07/12 08:17:48;;;;;;;6.90;6.45;;;;;;;23.92;60.52;102500.19;6031141;23;20018;-72
2022/07/12 08:20:20;;;;;;;6.60;6.10;;;;;;;23.62;62.43;102485.56;6033658;23;20090;-71
2022/07/12 08:23:07;;;;;;;6.40;6.00;;;;;;;23.57;62.54;102471.66;6032075;23;20026;-72
2022/07/12 08:25:34;;;;;;;6.13;5.82;;;;;;;23.95;61.82;102473.97;6022851;23;20031;-73
2022/07/12 08:28:00;;;;;;;7.30;6.90;;;;;;;23.85;61.26;102430.97;6021831;23;20554;-72
2022/07/12 08:30:27;;;;;;;6.30;5.90;;;;;;;24.08;61.10;102422.88;6029551;23;20019;-73
2022/07/12 08:32:55;;;;;;;8.15;7.65;;;;;;;23.59;58.66;102362.50;6025111;23;20025;-73
2022/07/12 08:35:21;;;;;;;7.50;7.07;;;;;;;23.63;59.58;102433.63;6024902;23;20375;-72
2022/07/12 08:37:48;;;;;;;7.20;6.70;;;;;;;22.80;58.80;102261.63;6020240;23;20030;-74
2022/07/12 08:40:15;;;;;;;6.75;6.35;;;;;;;24.01;59.34;102441.28;6027516;23;20019;-73
2022/07/12 08:42:42;;;;;;;5.90;5.60;;;;;;;24.12;59.04;102435.06;6025896;23;20606;-72
2022/07/12 08:45:09;;;;;;;6.35;6.05;;;;;;;24.06;56.46;102398.00;6013908;23;20020;-72
2022/07/12 08:47:37;;;;;;;6.20;5.90;;;;;;;24.36;56.42;102444.72;6030078;23;20034;-73
2022/07/12 08:50:19;;;;;;;6.22;5.82;;;;;;;24.36;56.19;102428.63;6026364;23;20034;-73
2022/07/12 08:52:47;;;;;;;6.43;5.93;;;;;;;24.67;54.80;102441.19;6003185;23;20477;-73
2022/07/12 08:55:18;;;;;;;5.80;5.50;;;;;;;24.86;54.14;102442.31;6025349;23;20035;-72
2022/07/12 08:57:44;;;;;;;6.47;6.13;;;;;;;24.61;52.79;102408.66;5999235;23;20558;-72
2022/07/12 09:00:11;;;;;;;6.00;5.70;;;;;;;24.75;53.56;102411.00;6029740;23;20719;-73
2022/07/12 09:02:50;;;;;;;5.97;5.63;;;;;;;24.82;53.06;102414.88;6026815;23;20372;-73
2022/07/12 09:05:20;;;;;;;6.07;5.78;;;;;;;24.78;53.09;102386.59;6008154;23;20026;-72
2022/07/12 09:07:48;;;;;;;7.30;6.70;;;;;;;25.17;53.11;102420.84;6024705;23;20022;-72
2022/07/12 09:10:16;;;;;;;6.13;5.72;;;;;;;25.13;52.50;102414.91;6027211;23;20018;-73
2022/07/12 09:12:44;;;;;;;6.40;6.10;;;;;;;25.03;52.52;102414.84;6033350;23;20078;-73
2022/07/12 09:15:21;;;;;;;6.70;6.20;;;;;;;24.97;51.70;102391.19;6023872;23;20397;-73
2022/07/12 09:18:04;;;;;;;7.20;6.80;;;;;;;25.03;50.85;102369.16;6049709;23;20070;-72
2022/07/12 09:20:36;;;;;;;5.88;5.57;;;;;;;25.63;52.20;102416.81;6025452;23;20061;-73
2022/07/12 09:23:08;;;;;;;7.60;6.88;;;;;;;25.27;50.93;102362.66;6028563;23;20444;-73
2022/07/12 09:25:36;;;;;;;;;;;;;;;25.56;52.51;102405.78;6020684;23;20027;-73
2022/07/12 09:28:04;;;;;;;7.75;7.35;;;;;;;25.34;51.34;102363.84;6028755;23;19914;-73
2022/07/12 09:30:31;;;;;;;6.00;5.70;;;;;;;25.85;51.19;102415.75;6021924;23;20006;-73
2022/07/12 09:36:12;;;;;;;6.82;6.47;;;;;;;25.92;50.26;102413.38;6018390;23;20360;-73
2022/07/12 09:38:45;;;;;;;7.00;6.53;;;;;;;25.59;50.86;102397.41;6025338;23;20031;-73
2022/07/12 09:41:17;;;;;;;5.93;5.63;;;;;;;25.84;51.80;102422.97;6033713;23;20078;-73
2022/07/12 09:43:44;;;;;;;6.50;6.18;;;;;;;25.04;50.03;102255.38;6001998;23;20091;-74
2022/07/12 09:46:14;;;;;;;6.88;6.45;;;;;;;26.13;49.41;102407.88;6035242;23;20113;-73
2022/07/12 09:48:41;;;;;;;6.15;5.85;;;;;;;25.92;49.02;102389.16;6022319;23;20035;-73
2022/07/12 09:51:15;;;;;;;6.70;6.20;;;;;;;26.23;50.00;102422.19;6028611;23;20026;-73
2022/07/12 09:53:47;;;;;;;6.43;6.10;;;;;;;26.45;49.39;102418.38;6029828;23;20085;-74
2022/07/12 09:56:17;;;;;;;6.38;6.05;;;;;;;26.73;47.28;102438.22;6033530;23;20030;-73
2022/07/12 09:58:57;;;;;;;6.45;5.95;;;;;;;26.64;46.13;102422.91;6029063;23;20041;-73
2022/07/12 10:01:24;;;;;;;6.32;5.95;;;;;;;26.15;49.05;102387.91;6025905;23;20007;-73
2022/07/12 10:03:52;;;;;;;7.60;7.10;;;;;;;26.05;48.08;102374.44;6028257;23;20114;-72
2022/07/12 10:06:30;;;;;;;6.20;5.90;;;;;;;26.49;47.04;102397.41;6024252;23;20014;-72
2022/07/12 10:09:02;;;;;;;7.30;6.90;;;;;;;26.37;46.60;102370.63;6002108;23;20422;-74
2022/07/12 10:11:29;;;;;;;6.32;5.93;;;;;;;26.81;46.43;102403.31;6010106;23;20144;-73
2022/07/12 10:14:18;;;;;;;6.28;5.95;;;;;;;26.71;45.90;102386.31;6027485;23;20026;-73
2022/07/12 10:16:45;;;;;;;6.25;5.95;;;;;;;26.60;46.22;102378.41;6025901;23;20014;-74
2022/07/12 10:19:25;;;;;;;6.53;6.13;;;;;;;26.86;46.92;102413.66;6029317;23;20518;-73
2022/07/12 10:21:57;;;;;;;8.38;7.63;;;;;;;27.00;46.37;102423.97;6027581;23;20007;-73
2022/07/12 10:24:32;;;;;;;6.13;5.82;;;;;;;26.84;46.71;102397.66;6027393;23;20021;-73
2022/07/12 10:27:14;;;;;;;8.05;7.43;;;;;;;26.92;45.67;102393.34;6024977;23;20416;-73
2022/07/12 10:29:41;;;;;;;6.13;5.80;;;;;;;27.22;45.04;102529.72;6033343;23;20113;-72
2022/07/12 10:32:26;;;;;;;6.43;6.03;;;;;;;27.06;45.83;102498.84;6022795;23;20015;-73
2022/07/12 10:35:00;;;;;;;6.93;6.63;;;;;;;27.38;45.51;102494.09;6030628;23;20053;-74
2022/07/12 10:37:28;;;;;;;6.65;6.25;;;;;;;27.61;43.95;102476.56;6019684;23;20048;-73
2022/07/12 10:40:15;;;;;;;7.50;7.03;;;;;;;27.37;43.85;102435.78;6027610;23;20149;-74
2022/07/12 10:43:00;;;;;;;6.43;6.03;;;;;;;27.29;43.67;102466.19;6024525;23;20034;-74
2022/07/12 10:45:38;;;;;;;6.15;5.78;;;;;;;27.67;43.28;102453.53;6036350;23;20241;-72
2022/07/12 10:48:07;;;;;;;6.20;5.90;;;;;;;27.58;43.09;102378.91;6015565;23;20499;-73
2022/07/12 10:50:48;;;;;;;6.10;5.75;;;;;;;27.78;42.92;102395.81;6031206;23;20482;-73
2022/07/12 10:53:33;;;;;;;6.20;5.80;;;;;;;27.95;41.77;102548.84;6010821;23;20023;-73
2022/07/12 10:56:15;;;;;;;7.13;6.72;;;;;;;27.97;42.44;102503.66;6030624;23;20106;-73
2022/07/12 10:58:46;;;;;;;5.95;5.65;;;;;;;28.22;41.90;102480.47;6018094;23;20037;-73
2022/07/12 11:01:15;;;;;;;;;;;;;;;27.55;43.19;102407.03;6004173;23;20480;-74
2022/07/12 11:04:08;;;;;;;6.28;5.88;;;;;;;27.41;43.88;102383.28;6019696;23;19933;-73
2022/07/12 11:06:38;;;;;;;6.30;5.90;;;;;;;26.90;44.39;102330.69;6023071;23;20022;-73
2022/07/12 11:09:07;;;;;;;6.60;6.20;;;;;;;27.52;43.09;102442.38;6020509;23;20018;-73
2022/07/12 11:11:43;;;;;;;5.90;5.60;;;;;;;27.27;41.59;102429.59;6047333;23;20025;-73
2022/07/12 11:14:11;;;;;;;5.78;5.47;;;;;;;27.28;42.12;102444.75;6023784;23;20105;-73
2022/07/12 11:16:48;;;;;;;6.43;6.03;;;;;;;27.20;42.46;102397.81;5994957;23;20035;-73
2022/07/12 11:19:15;;;;;;;5.90;5.60;;;;;;;27.27;42.26;102373.00;6021925;23;20010;-73
2022/07/12 11:21:45;;;;;;;5.80;5.40;;;;;;;27.30;41.48;102710.50;6027530;23;20689;-73
2022/07/12 11:24:16;;;;;;;6.05;5.75;;;;;;;27.16;40.36;102550.03;6019254;23;20147;-73
2022/07/12 11:26:43;;;;;;;6.25;5.85;;;;;;;27.43;40.82;102499.91;5996209;23;20022;-73
2022/07/12 11:29:11;;;;;;;5.78;5.47;;;;;;;27.89;41.05;102473.88;6029020;23;20010;-74
2022/07/12 11:31:38;;;;;;;6.03;5.70;;;;;;;28.03;40.38;102410.44;6022979;23;20623;-73
2022/07/12 11:34:05;;;;;;;5.75;5.45;;;;;;;27.96;39.88;102388.59;6028909;23;20050;-73